Time;durP1;ratioP1;P1;durP2;ratioP2;P2;SDS_P1;SDS_P2;PMS_P1;PMS_P2;Temp;Humidity;BMP_temperature;BMP_pressure;BME280_temperature;BME280_humidity;BME280_pressure;Samples;Min_cycle;Max_cycle;Signal;HPM_P1;HPM_P2
2023/04/18 00:00:09;;;;;;;10.02;7.75;;;11.90;99.90;;;;;;5070952;28;20293;-81
2023/04/18 00:02:38;;;;;;;6.97;6.35;;;11.80;99.90;;;;;;5070625;28;20224;-81
2023/04/18 00:05:11;;;;;;;9.20;7.45;;;11.80;99.90;;;;;;5070584;28;20216;-81
2023/04/18 00:07:40;;;;;;;6.68;6.07;;;11.80;99.90;;;;;;5071123;28;20303;-81
2023/04/18 00:10:08;;;;;;;10.18;7.47;;;11.80;99.90;;;;;;5070959;28;20209;-81
2023/04/18 00:12:36;;;;;;;7.07;6.47;;;11.80;99.90;;;;;;5070316;28;20229;-81
2023/04/18 00:15:07;;;;;;;8.15;7.38;;;11.80;99.90;;;;;;5070328;28;20238;-80
2023/04/18 00:17:38;;;;;;;8.00;7.20;;;11.80;99.90;;;;;;5070490;28;20224;-81
2023/04/18 00:20:10;;;;;;;7.80;7.07;;;11.80;99.90;;;;;;5070255;28;20243;-81
2023/04/18 00:22:41;;;;;;;7.80;7.15;;;11.80;99.90;;;;;;5070011;28;20241;-81
2023/04/18 00:25:10;;;;;;;8.00;7.30;;;11.70;99.90;;;;;;5071066;28;20286;-81
2023/04/18 00:27:39;;;;;;;8.98;7.13;;;11.70;99.90;;;;;;5070239;28;20240;-81
2023/04/18 00:30:09;;;;;;;7.63;6.60;;;11.70;99.90;;;;;;5070476;28;20217;-81
2023/04/18 00:32:37;;;;;;;6.85;6.25;;;11.70;99.90;;;;;;5069910;28;20228;-81
2023/04/18 00:35:06;;;;;;;8.18;6.72;;;11.70;99.90;;;;;;5070248;28;20224;-81
2023/04/18 00:37:36;;;;;;;7.28;6.18;;;11.70;99.90;;;;;;5070467;28;20213;-81
2023/04/18 00:40:05;;;;;;;7.85;6.78;;;11.70;99.90;;;;;;5071205;28;20216;-81
2023/04/18 00:42:33;;;;;;;8.05;6.75;;;11.70;99.90;;;;;;5071766;28;20257;-81
2023/04/18 00:45:02;;;;;;;6.95;6.22;;;11.70;99.90;;;;;;5072028;28;20201;-81
2023/04/18 00:47:30;;;;;;;5.90;5.40;;;11.70;99.90;;;;;;5071884;28;20205;-82
2023/04/18 00:49:59;;;;;;;6.28;5.60;;;11.70;99.90;;;;;;5072534;28;20248;-81
2023/04/18 00:52:27;;;;;;;6.07;5.38;;;11.70;99.90;;;;;;5072164;28;20228;-82
2023/04/18 00:54:57;;;;;;;9.02;6.20;;;11.70;99.90;;;;;;5071860;28;20217;-82
2023/04/18 00:57:25;;;;;;;6.43;5.05;;;11.70;99.90;;;;;;5071808;28;20204;-82
2023/04/18 00:59:55;;;;;;;8.90;5.32;;;11.70;99.90;;;;;;5071796;28;20205;-82
2023/04/18 01:02:24;;;;;;;8.07;5.35;;;11.70;99.90;;;;;;5071967;28;20228;-82
2023/04/18 01:04:53;;;;;;;5.53;4.97;;;11.70;99.90;;;;;;5072085;28;20201;-82
2023/04/18 01:07:21;;;;;;;5.38;4.88;;;11.70;99.90;;;;;;5072161;28;20213;-82
2023/04/18 01:09:50;;;;;;;6.40;5.75;;;11.70;99.90;;;;;;5073814;28;20209;-82
2023/04/18 01:12:19;;;;;;;5.53;4.97;;;11.70;99.90;;;;;;5075564;28;20225;-81
2023/04/18 01:14:47;;;;;;;9.07;4.72;;;11.70;99.90;;;;;;5075642;28;20228;-82
2023/04/18 01:17:16;;;;;;;5.05;4.65;;;11.70;99.90;;;;;;5075792;28;20292;-81
2023/04/18 01:19:45;;;;;;;5.53;4.53;;;11.70;99.90;;;;;;5075935;28;20273;-81
2023/04/18 01:22:14;;;;;;;4.50;4.10;;;11.70;99.90;;;;;;5075135;28;20235;-82
2023/04/18 01:24:44;;;;;;;6.60;4.78;;;11.60;99.90;;;;;;5075370;28;20197;-81
2023/04/18 01:27:13;;;;;;;4.60;4.20;;;11.60;99.90;;;;;;5075622;28;20212;-81
2023/04/18 01:29:41;;;;;;;5.18;4.65;;;11.60;99.90;;;;;;5075746;28;20209;-81
2023/04/18 01:32:09;;;;;;;5.05;4.32;;;11.60;99.90;;;;;;5075199;28;20232;-82
2023/04/18 01:34:38;;;;;;;4.18;3.85;;;11.60;99.90;;;;;;5074776;28;20212;-82
2023/04/18 01:37:06;;;;;;;4.13;3.72;;;11.60;99.90;;;;;;5075022;28;20216;-81
2023/04/18 01:39:34;;;;;;;4.00;3.65;;;11.60;99.90;;;;;;5075421;28;20247;-82
2023/04/18 01:42:04;;;;;;;4.20;3.80;;;11.60;99.90;;;;;;5075306;28;20224;-81
2023/04/18 01:44:32;;;;;;;4.15;3.85;;;11.60;99.90;;;;;;5075372;28;20206;-81
2023/04/18 01:47:01;;;;;;;4.35;4.03;;;11.60;99.90;;;;;;5075179;28;20262;-81
2023/04/18 01:49:29;;;;;;;3.90;3.60;;;11.60;99.90;;;;;;5075115;28;20263;-81
2023/04/18 01:51:57;;;;;;;3.80;3.60;;;11.60;99.90;;;;;;5074581;28;20227;-81
2023/04/18 01:54:26;;;;;;;3.72;3.45;;;11.60;99.90;;;;;;5075073;28;20211;-81
2023/04/18 01:56:54;;;;;;;3.88;3.47;;;11.60;99.90;;;;;;5075155;28;20229;-81
2023/04/18 01:59:24;;;;;;;4.35;3.90;;;11.60;99.90;;;;;;5074532;28;20201;-81
2023/04/18 02:01:52;;;;;;;4.13;3.80;;;11.60;99.90;;;;;;5074339;28;20217;-81
2023/04/18 02:04:21;;;;;;;3.88;3.55;;;11.60;99.90;;;;;;5074873;28;20240;-81
2023/04/18 02:06:49;;;;;;;6.95;4.15;;;11.60;99.90;;;;;;5074609;28;20205;-81
2023/04/18 02:09:18;;;;;;;3.63;3.33;;;11.60;99.90;;;;;;5074841;28;20311;-81
2023/04/18 02:11:46;;;;;;;3.60;3.30;;;11.60;99.90;;;;;;5074598;28;20308;-81
2023/04/18 02:14:14;;;;;;;3.40;3.17;;;11.60;99.90;;;;;;5074739;28;20223;-81
2023/04/18 02:16:44;;;;;;;3.35;3.05;;;11.60;99.90;;;;;;5074368;28;20312;-81
2023/04/18 02:19:12;;;;;;;4.00;3.70;;;11.50;99.90;;;;;;5074563;28;20201;-80
2023/04/18 02:21:41;;;;;;;4.05;3.10;;;11.50;99.90;;;;;;5074228;28;20250;-80
2023/04/18 02:24:09;;;;;;;4.05;3.70;;;11.50;99.90;;;;;;5074829;28;20227;-80
2023/04/18 02:26:37;;;;;;;3.90;3.53;;;11.50;99.90;;;;;;5074391;28;20212;-82
2023/04/18 02:29:05;;;;;;;3.40;3.10;;;11.50;99.90;;;;;;5074509;28;20223;-81
2023/04/18 02:31:34;;;;;;;3.15;2.88;;;11.50;99.90;;;;;;5074232;28;20205;-80
2023/04/18 02:34:03;;;;;;;3.42;3.15;;;11.50;99.90;;;;;;5074316;28;20201;-80
2023/04/18 02:36:32;;;;;;;3.63;3.33;;;11.50;99.90;;;;;;5074230;28;20225;-80
2023/04/18 02:39:00;;;;;;;3.25;2.95;;;11.50;99.90;;;;;;5073980;28;20216;-81
2023/04/18 02:41:28;;;;;;;2.78;2.60;;;11.50;99.90;;;;;;5073765;28;20201;-80
2023/04/18 02:43:56;;;;;;;5.18;3.05;;;11.50;99.90;;;;;;5074051;28;20506;-80
2023/04/18 02:46:25;;;;;;;3.05;2.85;;;11.50;99.90;;;;;;5074080;28;20208;-80
2023/04/18 02:48:53;;;;;;;3.35;3.05;;;11.50;99.90;;;;;;5074130;28;20205;-81
2023/04/18 02:51:22;;;;;;;3.47;3.17;;;11.50;99.90;;;;;;5073819;28;20215;-81
2023/04/18 02:53:53;;;;;;;2.85;2.65;;;11.40;99.90;;;;;;5073503;28;20209;-80
2023/04/18 02:56:22;;;;;;;2.25;2.13;;;11.40;99.90;;;;;;5074144;28;20229;-81
2023/04/18 02:58:50;;;;;;;3.65;2.75;;;11.40;99.90;;;;;;5073730;28;20209;-80
2023/04/18 03:01:18;;;;;;;2.80;2.60;;;11.40;99.90;;;;;;5073243;28;20205;-81
2023/04/18 03:03:47;;;;;;;2.60;2.40;;;11.40;99.90;;;;;;5073293;28;20225;-81
2023/04/18 03:06:15;;;;;;;3.60;3.10;;;11.40;99.90;;;;;;5073585;28;20205;-81
2023/04/18 03:08:44;;;;;;;3.03;2.80;;;11.40;99.90;;;;;;5073546;28;20213;-81
2023/04/18 03:11:13;;;;;;;3.60;3.22;;;11.40;99.90;;;;;;5073894;28;20215;-81
2023/04/18 03:13:41;;;;;;;3.63;2.58;;;11.40;99.90;;;;;;5073252;28;20236;-80
2023/04/18 03:16:10;;;;;;;3.72;3.30;;;11.40;99.90;;;;;;5073217;28;20220;-81
2023/04/18 03:18:38;;;;;;;2.63;2.42;;;11.40;99.90;;;;;;5073356;28;20262;-81
2023/04/18 03:21:06;;;;;;;2.92;2.72;;;11.40;99.90;;;;;;5073337;28;20212;-81
2023/04/18 03:23:34;;;;;;;3.42;3.13;;;11.40;99.90;;;;;;5072846;28;20239;-82
2023/04/18 03:26:05;;;;;;;2.85;2.55;;;11.40;99.90;;;;;;5073202;28;20205;-80
2023/04/18 03:28:33;;;;;;;3.25;2.78;;;11.40;99.90;;;;;;5073095;28;20209;-81
2023/04/18 03:31:01;;;;;;;2.72;2.53;;;11.40;99.90;;;;;;5073326;28;20201;-81
2023/04/18 03:33:30;;;;;;;2.47;2.35;;;11.40;99.90;;;;;;5072301;28;20220;-81
2023/04/18 03:35:58;;;;;;;3.13;2.75;;;11.40;99.90;;;;;;5073059;28;20225;-81
2023/04/18 03:38:26;;;;;;;3.22;2.90;;;11.40;99.90;;;;;;5073449;28;20208;-81
2023/04/18 03:40:54;;;;;;;3.22;2.92;;;11.40;99.90;;;;;;5072911;28;20209;-81
2023/04/18 03:43:24;;;;;;;2.45;2.25;;;11.40;99.90;;;;;;5072323;28;20301;-81
2023/04/18 03:45:53;;;;;;;3.30;3.08;;;11.40;99.90;;;;;;5072961;28;20291;-81
2023/04/18 03:48:21;;;;;;;3.00;2.80;;;11.40;99.90;;;;;;5073135;28;20263;-80
2023/04/18 03:50:50;;;;;;;2.95;2.75;;;11.40;99.90;;;;;;5072910;28;20291;-81
2023/04/18 03:53:18;;;;;;;2.85;2.65;;;11.40;99.90;;;;;;5072904;28;20244;-81
2023/04/18 03:55:47;;;;;;;3.55;3.25;;;11.40;99.90;;;;;;5072153;28;20211;-81
2023/04/18 03:58:16;;;;;;;2.00;1.90;;;11.30;99.90;;;;;;5072378;28;20205;-80
2023/04/18 04:00:46;;;;;;;2.50;2.33;;;11.30;99.90;;;;;;5072908;28;20212;-80
2023/04/18 04:03:14;;;;;;;4.35;2.88;;;11.30;99.90;;;;;;5072809;28;20221;-81
2023/04/18 04:05:43;;;;;;;3.15;2.83;;;11.40;99.90;;;;;;5072670;28;20208;-81
2023/04/18 04:08:11;;;;;;;2.72;2.53;;;11.30;99.90;;;;;;5072711;28;20209;-80
2023/04/18 04:10:39;;;;;;;2.88;2.67;;;11.30;99.90;;;;;;5072460;28;20205;-81
2023/04/18 04:13:07;;;;;;;5.68;2.67;;;11.30;99.90;;;;;;5072387;28;20233;-81
2023/04/18 04:15:37;;;;;;;3.00;2.80;;;11.40;99.90;;;;;;5072616;28;20209;-81
2023/04/18 04:18:07;;;;;;;5.18;3.00;;;11.40;99.90;;;;;;5072344;28;20229;-80
2023/04/18 04:20:36;;;;;;;2.88;2.67;;;11.30;99.90;;;;;;5072633;28;20209;-81
2023/04/18 04:23:05;;;;;;;3.20;2.90;;;11.30;99.90;;;;;;5072285;28;20235;-81
2023/04/18 04:25:33;;;;;;;3.70;3.17;;;11.30;99.90;;;;;;5072183;28;20220;-81
2023/04/18 04:28:01;;;;;;;3.10;2.80;;;11.30;99.90;;;;;;5072435;28;20288;-81
2023/04/18 04:30:30;;;;;;;3.10;2.83;;;11.30;99.90;;;;;;5072628;28;20284;-81
2023/04/18 04:32:58;;;;;;;3.28;3.00;;;11.30;99.90;;;;;;5072223;28;20233;-82
2023/04/18 04:35:28;;;;;;;3.33;3.03;;;11.30;99.90;;;;;;5072691;28;20219;-81
2023/04/18 04:37:57;;;;;;;2.20;2.00;;;11.20;99.90;;;;;;5072544;28;20240;-81
2023/04/18 04:40:25;;;;;;;2.22;2.10;;;11.30;99.90;;;;;;5072387;28;20254;-81
2023/04/18 04:42:55;;;;;;;2.50;2.30;;;11.30;99.90;;;;;;5072252;28;20229;-81
2023/04/18 04:45:23;;;;;;;1.95;1.85;;;11.20;99.90;;;;;;5075174;28;20204;-81
2023/04/18 04:47:51;;;;;;;2.50;2.30;;;11.20;99.90;;;;;;5076109;28;20208;-81
2023/04/18 04:50:19;;;;;;;2.05;1.95;;;11.20;99.90;;;;;;5076295;28;20205;-81
2023/04/18 04:52:49;;;;;;;2.65;2.45;;;11.20;99.90;;;;;;5075885;28;20239;-81
2023/04/18 04:55:18;;;;;;;2.40;2.20;;;11.20;99.90;;;;;;5075893;28;20215;-81
2023/04/18 04:57:46;;;;;;;2.03;1.92;;;11.20;99.90;;;;;;5075386;28;20225;-81
2023/04/18 05:00:19;;;;;;;2.45;2.25;;;11.20;99.90;;;;;;5076056;28;20234;-81
2023/04/18 05:02:47;;;;;;;3.13;2.92;;;11.20;99.90;;;;;;5075672;28;20225;-81
2023/04/18 05:05:16;;;;;;;2.90;2.70;;;11.20;99.90;;;;;;5076143;28;20244;-81
2023/04/18 05:07:44;;;;;;;2.40;2.20;;;11.20;99.90;;;;;;5075863;28;20225;-81
2023/04/18 05:10:14;;;;;;;2.10;2.00;;;11.20;99.90;;;;;;5076501;28;20205;-81
2023/04/18 05:12:42;;;;;;;2.50;2.30;;;11.20;99.90;;;;;;5075850;28;20247;-81
2023/04/18 05:15:12;;;;;;;2.50;2.30;;;11.20;99.90;;;;;;5075648;28;20215;-81
2023/04/18 05:17:40;;;;;;;2.42;2.22;;;11.20;99.90;;;;;;5075631;28;20221;-81
2023/04/18 05:20:10;;;;;;;2.08;1.98;;;11.20;99.90;;;;;;5075562;28;20209;-81
2023/04/18 05:22:38;;;;;;;2.53;2.33;;;11.20;99.90;;;;;;5075174;28;20255;-81
2023/04/18 05:25:07;;;;;;;3.55;3.00;;;11.20;99.90;;;;;;5075673;28;20215;-81
2023/04/18 05:27:37;;;;;;;3.10;2.80;;;11.20;99.90;;;;;;5075615;28;20215;-81
2023/04/18 05:30:06;;;;;;;3.13;2.92;;;11.20;99.90;;;;;;5075276;28;20216;-81
2023/04/18 05:32:34;;;;;;;3.53;2.00;;;11.20;99.90;;;;;;5074997;28;20233;-81
2023/04/18 05:35:03;;;;;;;2.42;2.28;;;11.20;99.90;;;;;;5075252;28;20209;-81
2023/04/18 05:37:31;;;;;;;3.13;2.80;;;11.20;99.90;;;;;;5075781;28;20217;-81
2023/04/18 05:39:59;;;;;;;2.72;2.53;;;11.20;99.90;;;;;;5075325;28;20213;-81
2023/04/18 05:42:28;;;;;;;2.53;2.33;;;11.20;99.90;;;;;;5075142;28;20240;-81
2023/04/18 05:44:57;;;;;;;6.18;2.83;;;11.20;99.90;;;;;;5075120;28;20237;-81
2023/04/18 05:47:27;;;;;;;2.80;2.60;;;11.20;99.90;;;;;;5075174;28;20302;-81
2023/04/18 05:49:55;;;;;;;3.00;2.80;;;11.20;99.90;;;;;;5075598;28;20288;-81
2023/04/18 05:52:24;;;;;;;2.30;2.20;;;11.20;99.90;;;;;;5074955;28;20235;-80
2023/04/18 05:54:53;;;;;;;5.45;3.67;;;11.20;99.90;;;;;;5074245;28;20209;-81
2023/04/18 05:57:21;;;;;;;2.92;2.72;;;11.20;99.90;;;;;;5074514;28;20225;-81
2023/04/18 05:59:49;;;;;;;3.08;2.75;;;11.20;99.90;;;;;;5074975;28;20209;-81
2023/04/18 06:02:19;;;;;;;3.28;2.97;;;11.20;99.90;;;;;;5075049;28;20229;-81
2023/04/18 06:04:47;;;;;;;3.30;2.90;;;11.20;99.90;;;;;;5074861;28;20208;-82
2023/04/18 06:07:16;;;;;;;2.20;2.10;;;11.20;99.90;;;;;;5074894;28;20297;-82
2023/04/18 06:09:44;;;;;;;2.90;2.53;;;11.30;99.90;;;;;;5074724;28;20209;-81
2023/04/18 06:12:12;;;;;;;2.80;2.60;;;11.30;99.90;;;;;;5074611;28;20231;-81
2023/04/18 06:14:40;;;;;;;2.60;2.40;;;11.30;99.90;;;;;;5075026;28;20212;-81
2023/04/18 06:17:11;;;;;;;2.58;2.47;;;11.40;99.90;;;;;;5074710;28;20205;-81
2023/04/18 06:19:41;;;;;;;3.03;2.80;;;11.40;99.90;;;;;;5074781;28;20216;-82
2023/04/18 06:22:09;;;;;;;2.55;2.35;;;11.50;99.90;;;;;;5074195;28;20236;-81
2023/04/18 06:24:37;;;;;;;2.63;2.42;;;11.60;99.90;;;;;;5074494;28;20205;-81
2023/04/18 06:27:06;;;;;;;7.03;2.70;;;11.60;99.90;;;;;;5074214;28;20213;-81
2023/04/18 06:29:42;;;;;;;2.45;2.25;;;11.70;99.90;;;;;;5074604;28;20258;-81
2023/04/18 06:32:10;;;;;;;2.67;2.45;;;11.70;99.90;;;;;;5074117;28;20319;-81
2023/04/18 06:34:40;;;;;;;4.07;2.40;;;11.70;99.90;;;;;;5074278;28;20208;-81
2023/04/18 06:37:08;;;;;;;2.50;2.30;;;11.70;99.90;;;;;;5074016;28;20209;-81
2023/04/18 06:39:36;;;;;;;2.50;2.30;;;11.70;99.90;;;;;;5073870;28;20221;-81
2023/04/18 06:42:05;;;;;;;2.35;2.15;;;11.70;99.90;;;;;;5074154;28;20243;-81
2023/04/18 06:44:34;;;;;;;2.67;2.47;;;11.60;99.90;;;;;;5074753;28;20205;-81
2023/04/18 06:47:03;;;;;;;2.17;2.08;;;11.60;99.90;;;;;;5073977;28;20215;-80
2023/04/18 06:49:31;;;;;;;2.10;1.92;;;11.60;99.90;;;;;;5073865;28;20224;-81
2023/04/18 06:52:00;;;;;;;2.40;2.08;;;11.60;99.90;;;;;;5073765;28;20229;-80
2023/04/18 06:54:29;;;;;;;3.20;2.50;;;11.60;99.90;;;;;;5074154;28;20204;-80
2023/04/18 06:56:57;;;;;;;2.28;2.17;;;11.60;99.90;;;;;;5073877;28;20227;-80
2023/04/18 06:59:25;;;;;;;2.30;2.15;;;11.60;99.90;;;;;;5073495;28;20217;-81
2023/04/18 07:01:53;;;;;;;3.60;2.45;;;11.60;99.90;;;;;;5073695;28;20221;-80
2023/04/18 07:04:22;;;;;;;2.80;2.50;;;11.60;99.90;;;;;;5073478;28;20237;-81
2023/04/18 07:06:51;;;;;;;2.60;2.40;;;11.60;99.90;;;;;;5072788;28;20205;-81
2023/04/18 07:09:21;;;;;;;2.40;2.20;;;11.70;99.90;;;;;;5073919;28;20209;-81
2023/04/18 07:11:51;;;;;;;2.25;2.05;;;11.70;99.90;;;;;;5073513;28;20224;-81
2023/04/18 07:14:21;;;;;;;5.40;2.65;;;11.80;99.90;;;;;;5073959;28;20215;-81
2023/04/18 07:16:49;;;;;;;2.40;2.20;;;11.80;99.90;;;;;;5073455;28;20201;-81
2023/04/18 07:19:18;;;;;;;3.03;2.60;;;11.80;99.90;;;;;;5073185;28;20228;-80
2023/04/18 07:21:46;;;;;;;2.65;2.45;;;11.90;99.90;;;;;;5073127;28;20362;-81
2023/04/18 07:24:14;;;;;;;2.20;2.10;;;12.00;99.90;;;;;;5073502;28;20223;-81
2023/04/18 07:26:44;;;;;;;2.97;1.98;;;12.00;99.90;;;;;;5073126;28;20209;-81
2023/04/18 07:29:12;;;;;;;2.22;2.03;;;12.00;99.90;;;;;;5073421;28;20205;-81
2023/04/18 07:31:41;;;;;;;4.45;3.60;;;12.00;99.90;;;;;;5073231;28;20201;-81
2023/04/18 07:34:10;;;;;;;3.38;2.63;;;11.90;99.90;;;;;;5073023;28;20291;-81
2023/04/18 07:36:41;;;;;;;3.28;3.03;;;11.90;99.90;;;;;;5073423;28;20205;-80
2023/04/18 07:39:09;;;;;;;3.75;3.45;;;11.90;99.90;;;;;;5073232;28;20229;-81
2023/04/18 07:41:37;;;;;;;3.72;3.42;;;11.90;99.90;;;;;;5073445;28;20221;-81
2023/04/18 07:44:07;;;;;;;4.60;4.13;;;11.90;99.90;;;;;;5072661;28;20201;-80
2023/04/18 07:46:36;;;;;;;4.85;4.35;;;11.90;99.90;;;;;;5072624;28;20264;-80
2023/04/18 07:49:04;;;;;;;3.70;3.40;;;11.90;99.90;;;;;;5072907;28;20201;-81
2023/04/18 07:51:33;;;;;;;3.80;3.50;;;11.90;99.90;;;;;;5072259;28;20210;-81
2023/04/18 07:54:02;;;;;;;3.42;3.13;;;11.90;99.90;;;;;;5072697;28;20201;-81
2023/04/18 07:56:30;;;;;;;4.30;3.08;;;11.90;99.90;;;;;;5072814;28;20200;-81
2023/04/18 07:58:58;;;;;;;3.97;3.58;;;12.00;99.90;;;;;;5072252;28;20221;-81
2023/04/18 08:01:28;;;;;;;3.30;3.10;;;12.00;99.90;;;;;;5072619;28;20209;-81
2023/04/18 08:04:00;;;;;;;3.10;2.80;;;11.90;99.90;;;;;;5072871;28;20205;-81
2023/04/18 08:06:29;;;;;;;9.18;3.63;;;11.90;99.90;;;;;;5072508;28;20220;-81
2023/04/18 08:08:57;;;;;;;3.78;3.47;;;12.00;99.90;;;;;;5073107;28;20284;-81
2023/04/18 08:11:26;;;;;;;5.00;3.67;;;12.00;99.90;;;;;;5072359;28;20216;-81
2023/04/18 08:13:54;;;;;;;5.50;4.40;;;12.00;99.90;;;;;;5072510;28;20213;-80
2023/04/18 08:16:22;;;;;;;3.72;3.40;;;12.00;99.90;;;;;;5072655;28;20232;-81
2023/04/18 08:18:52;;;;;;;3.88;3.55;;;12.10;99.90;;;;;;5072572;28;20225;-81
2023/04/18 08:21:20;;;;;;;3.67;3.38;;;12.10;99.90;;;;;;5072424;28;20205;-81
2023/04/18 08:23:48;;;;;;;4.47;3.85;;;12.10;99.90;;;;;;5072328;28;20243;-81
2023/04/18 08:26:17;;;;;;;3.83;3.53;;;12.10;99.90;;;;;;5072860;28;20220;-81
2023/04/18 08:28:45;;;;;;;4.35;4.00;;;12.10;99.90;;;;;;5072761;28;20212;-81
2023/04/18 08:31:14;;;;;;;4.38;4.00;;;12.10;99.90;;;;;;5072675;28;20205;-81
2023/04/18 08:33:42;;;;;;;4.93;4.22;;;12.10;99.90;;;;;;5072120;28;20312;-81
2023/04/18 08:36:12;;;;;;;3.58;3.30;;;12.10;99.90;;;;;;5072471;28;20211;-81
2023/04/18 08:38:40;;;;;;;5.35;4.05;;;12.20;99.90;;;;;;5072318;28;20224;-81
2023/04/18 08:41:09;;;;;;;4.75;4.35;;;12.20;99.90;;;;;;5072256;28;20212;-81
2023/04/18 08:43:38;;;;;;;5.53;3.90;;;12.10;99.90;;;;;;5072421;28;20229;-81
2023/04/18 08:46:06;;;;;;;5.22;4.70;;;12.10;99.90;;;;;;5072199;28;20215;-80
2023/04/18 08:48:35;;;;;;;5.15;4.47;;;12.10;99.90;;;;;;5072289;28;20213;-81
2023/04/18 08:51:04;;;;;;;4.28;3.88;;;12.10;99.90;;;;;;5072174;28;20209;-80
2023/04/18 08:53:34;;;;;;;4.28;3.97;;;12.10;99.90;;;;;;5071920;28;20225;-80
2023/04/18 08:56:04;;;;;;;5.03;4.55;;;12.10;99.90;;;;;;5072022;28;20591;-80
2023/04/18 08:58:33;;;;;;;8.57;5.03;;;12.10;99.90;;;;;;5071784;28;20302;-80
2023/04/18 09:01:02;;;;;;;4.28;3.97;;;12.20;99.90;;;;;;5072299;28;20274;-80
2023/04/18 09:03:38;;;;;;;6.40;4.85;;;12.30;99.90;;;;;;5071814;28;20229;-81
2023/04/18 09:06:08;;;;;;;5.05;4.55;;;12.50;99.90;;;;;;5072308;28;20211;-81
2023/04/18 09:08:38;;;;;;;5.35;4.45;;;12.60;99.90;;;;;;5072093;28;20243;-81
2023/04/18 09:11:27;;;;;;;4.97;4.45;;;12.80;99.90;;;;;;5072146;28;20213;-81
2023/04/18 09:13:57;;;;;;;6.40;4.85;;;12.80;99.90;;;;;;5071941;28;20208;-81
2023/04/18 09:16:28;;;;;;;4.75;4.35;;;12.90;99.90;;;;;;5072259;28;20293;-81
2023/04/18 09:19:11;;;;;;;5.03;4.50;;;13.00;99.90;;;;;;5072090;28;20267;-81
2023/04/18 09:21:43;;;;;;;4.00;3.70;;;13.10;99.90;;;;;;5071455;28;20292;-81
2023/04/18 09:24:22;;;;;;;4.38;3.97;;;13.30;99.90;;;;;;5071772;28;20213;-81
2023/04/18 09:26:54;;;;;;;4.18;3.88;;;13.50;99.90;;;;;;5071839;28;20219;-80
2023/04/18 09:29:41;;;;;;;3.67;3.38;;;13.70;99.90;;;;;;5071923;28;20207;-80
2023/04/18 09:32:09;;;;;;;9.45;4.28;;;13.80;99.90;;;;;;5075110;28;20320;-81
2023/04/18 09:34:42;;;;;;;4.80;4.40;;;13.80;99.90;;;;;;5075671;28;20201;-80
2023/04/18 09:37:11;;;;;;;4.82;4.43;;;13.70;99.90;;;;;;5075660;28;20213;-81
2023/04/18 09:39:44;;;;;;;5.03;4.05;;;13.80;99.90;;;;;;5075134;28;20229;-81
2023/04/18 09:42:12;;;;;;;7.53;4.35;;;13.80;99.90;;;;;;5075541;28;20243;-81
2023/04/18 09:45:05;;;;;;;4.72;3.80;;;13.90;99.90;;;;;;5075306;28;20209;-80
2023/04/18 09:47:36;;;;;;;4.25;3.88;;;13.90;99.90;;;;;;5075214;28;20205;-80
2023/04/18 09:50:05;;;;;;;4.53;4.22;;;14.00;99.90;;;;;;5075334;28;20200;-81
2023/04/18 09:52:35;;;;;;;4.47;4.13;;;14.00;99.90;;;;;;5074807;28;20233;-81
2023/04/18 09:55:07;;;;;;;15.70;4.90;;;14.10;99.90;;;;;;5074966;28;20213;-80
2023/04/18 09:57:39;;;;;;;5.03;4.55;;;14.10;99.90;;;;;;5074687;28;20217;-81
2023/04/18 10:00:16;;;;;;;4.30;3.92;;;14.10;99.90;;;;;;5074765;28;20235;-81
2023/04/18 10:02:49;;;;;;;4.97;4.28;;;14.20;99.90;;;;;;5074903;28;20226;-81
2023/04/18 10:05:19;;;;;;;6.40;4.90;;;14.30;99.90;;;;;;5075058;28;20217;-81
2023/04/18 10:07:50;;;;;;;5.20;4.75;;;14.30;99.90;;;;;;5074901;28;20205;-81
2023/04/18 10:10:20;;;;;;;4.53;4.13;;;14.40;99.90;;;;;;5075232;28;20205;-81
2023/04/18 10:12:49;;;;;;;5.25;4.47;;;14.40;99.90;;;;;;5074450;28;20233;-81
2023/04/18 10:15:20;;;;;;;4.63;4.20;;;14.50;99.90;;;;;;5074615;28;20231;-81
2023/04/18 10:17:53;;;;;;;4.70;4.22;;;14.70;99.90;;;;;;5074465;28;20204;-81
2023/04/18 10:20:33;;;;;;;5.10;4.30;;;14.80;99.90;;;;;;5074460;28;20236;-81
2023/04/18 10:23:35;;;;;;;4.45;3.97;;;14.70;99.90;;;;;;5074591;28;20257;-81
2023/04/18 10:26:05;;;;;;;4.65;4.15;;;14.50;99.90;;;;;;5074401;28;20214;-81
2023/04/18 10:28:55;;;;;;;4.85;4.45;;;14.30;99.90;;;;;;5074369;28;20223;-81
2023/04/18 10:31:25;;;;;;;4.70;4.35;;;14.10;99.90;;;;;;5074044;28;20205;-81
2023/04/18 10:33:54;;;;;;;6.57;5.72;;;14.10;99.90;;;;;;5074460;28;20256;-81
2023/04/18 10:36:33;;;;;;;5.05;4.55;;;14.20;99.90;;;;;;5074518;28;20219;-81
2023/04/18 10:39:19;;;;;;;5.60;4.93;;;14.30;99.90;;;;;;5074171;28;20215;-81
2023/04/18 10:41:50;;;;;;;6.68;4.70;;;14.40;99.90;;;;;;5073717;28;20308;-81
2023/04/18 10:44:21;;;;;;;5.93;5.28;;;14.50;99.90;;;;;;5074657;28;20213;-82
2023/04/18 10:47:21;;;;;;;5.22;4.82;;;14.70;99.90;;;;;;5074002;28;20201;-81
2023/04/18 10:49:59;;;;;;;5.55;5.05;;;14.80;99.90;;;;;;5073739;28;20197;-82
2023/04/18 10:52:29;;;;;;;5.38;4.97;;;14.80;99.90;;;;;;5073630;28;20232;-81
2023/04/18 10:55:11;;;;;;;10.93;4.95;;;15.10;99.90;;;;;;5074294;28;20295;-82
2023/04/18 10:57:42;;;;;;;5.40;4.97;;;15.50;99.90;;;;;;5073585;28;20209;-82
2023/04/18 11:00:13;;;;;;;5.40;4.90;;;15.80;99.90;;;;;;5073954;28;20225;-82
2023/04/18 11:02:49;;;;;;;4.07;3.78;;;15.80;99.90;;;;;;5073635;28;20312;-82
2023/04/18 11:05:23;;;;;;;5.32;4.82;;;15.80;99.90;;;;;;5073905;28;20219;-81
2023/04/18 11:07:51;;;;;;;4.93;4.50;;;15.80;99.90;;;;;;5073556;28;20239;-82
2023/04/18 11:10:22;;;;;;;4.38;4.05;;;15.80;99.90;;;;;;5073737;28;20201;-82
2023/04/18 11:12:53;;;;;;;5.40;4.70;;;15.70;99.90;;;;;;5073177;28;20233;-82
2023/04/18 11:15:23;;;;;;;4.82;4.43;;;15.60;99.90;;;;;;5073468;28;20235;-81
2023/04/18 11:17:59;;;;;;;5.07;4.65;;;15.50;99.90;;;;;;5073642;28;20216;-81
2023/04/18 11:20:28;;;;;;;6.55;5.20;;;15.50;99.90;;;;;;5073708;28;20232;-81
2023/04/18 11:22:58;;;;;;;5.78;5.28;;;15.50;99.90;;;;;;5072963;28;20236;-81
2023/04/18 11:25:28;;;;;;;5.18;4.68;;;15.40;99.90;;;;;;5073459;28;20205;-82
2023/04/18 11:28:00;;;;;;;5.22;4.80;;;15.40;99.90;;;;;;5073070;28;20220;-81
2023/04/18 11:30:36;;;;;;;5.18;4.55;;;15.40;99.90;;;;;;5073134;28;20229;-81
2023/04/18 11:33:07;;;;;;;4.47;4.15;;;15.60;99.90;;;;;;5072753;28;20331;-81
2023/04/18 11:35:38;;;;;;;4.72;4.32;;;15.70;99.90;;;;;;5073290;28;20212;-81
2023/04/18 11:38:07;;;;;;;4.32;3.92;;;15.80;99.90;;;;;;5072918;28;20291;-81
2023/04/18 11:40:36;;;;;;;5.03;4.53;;;15.70;99.90;;;;;;5072913;28;20289;-82
2023/04/18 11:43:07;;;;;;;4.60;4.20;;;15.60;99.90;;;;;;5072721;28;20229;-81
2023/04/18 11:45:35;;;;;;;5.10;4.60;;;15.40;99.90;;;;;;5072925;28;20209;-81
2023/04/18 11:48:03;;;;;;;4.43;4.03;;;15.00;99.90;;;;;;5072996;28;20200;-81
2023/04/18 11:50:36;;;;;;;5.00;4.50;;;15.00;99.90;;;;;;5073069;28;20284;-81
2023/04/18 11:53:04;;;;;;;4.40;4.00;;;15.00;99.90;;;;;;5072191;28;20221;-81
2023/04/18 11:55:33;;;;;;;5.30;4.43;;;14.90;99.90;;;;;;5072689;28;20212;-82
2023/04/18 11:58:02;;;;;;;5.70;5.00;;;15.10;99.90;;;;;;5072647;28;20211;-81
2023/04/18 12:00:33;;;;;;;5.07;4.55;;;15.30;99.90;;;;;;5072627;28;20221;-82
2023/04/18 12:03:04;;;;;;;4.95;4.43;;;15.50;99.90;;;;;;5072610;28;20256;-81
2023/04/18 12:05:34;;;;;;;5.40;4.28;;;15.60;99.90;;;;;;5073011;28;20196;-82
2023/04/18 12:08:07;;;;;;;5.07;4.07;;;15.50;99.90;;;;;;5073123;28;20221;-82
2023/04/18 12:10:36;;;;;;;4.97;4.20;;;15.40;99.90;;;;;;5073227;28;20211;-83
2023/04/18 12:13:07;;;;;;;4.80;4.40;;;15.30;99.90;;;;;;5072401;28;20260;-82
2023/04/18 12:15:40;;;;;;;3.88;3.58;;;15.20;99.90;;;;;;5072780;28;20217;-81
2023/04/18 12:18:09;;;;;;;4.22;3.92;;;15.10;99.90;;;;;;5072558;28;20277;-82
2023/04/18 12:20:39;;;;;;;3.60;3.38;;;15.10;99.90;;;;;;5072290;28;20215;-82
2023/04/18 12:23:07;;;;;;;5.05;4.45;;;15.10;99.90;;;;;;5072050;28;20239;-82
2023/04/18 12:25:36;;;;;;;4.53;4.07;;;14.90;99.90;;;;;;5072513;28;20209;-82
2023/04/18 12:28:15;;;;;;;4.38;4.05;;;14.80;99.90;;;;;;5072502;28;20205;-82
2023/04/18 12:30:45;;;;;;;4.70;4.35;;;14.70;99.90;;;;;;5072580;28;20228;-82
2023/04/18 12:33:13;;;;;;;4.75;4.35;;;14.70;99.90;;;;;;5072016;28;20231;-82
2023/04/18 12:35:41;;;;;;;4.93;3.63;;;14.50;99.90;;;;;;5072699;28;20216;-82
2023/04/18 12:38:09;;;;;;;4.88;4.38;;;14.40;99.90;;;;;;5072471;28;20205;-82
2023/04/18 12:40:39;;;;;;;3.85;3.55;;;14.30;99.90;;;;;;5072414;28;20292;-82
2023/04/18 12:43:08;;;;;;;4.10;3.78;;;14.40;99.90;;;;;;5072183;28;20228;-82
2023/04/18 12:45:36;;;;;;;4.28;3.78;;;14.30;99.90;;;;;;5072099;28;20240;-81
2023/04/18 12:48:07;;;;;;;4.20;3.90;;;14.30;99.90;;;;;;5072234;28;20220;-82
2023/04/18 12:50:35;;;;;;;5.35;4.50;;;14.20;99.90;;;;;;5072098;28;20213;-82
2023/04/18 12:53:04;;;;;;;5.35;3.85;;;14.10;99.90;;;;;;5072174;28;20221;-82
2023/04/18 12:55:33;;;;;;;4.28;3.97;;;14.00;99.90;;;;;;5072276;28;20297;-82
2023/04/18 12:58:01;;;;;;;5.10;4.60;;;14.00;99.90;;;;;;5071872;28;20227;-81